sensor_id;sensor_type;location;lat;lon;timestamp;P1;durP1;ratioP1;P2;durP2;ratioP2
26774;SDS011;14362;51.902;7.626;2022-07-04T00:02:07;3.42;;;3.13;;
26774;SDS011;14362;51.902;7.626;2022-07-04T00:06:08;4.10;;;3.80;;
26774;SDS011;14362;51.902;7.626;2022-07-04T00:10:10;6.60;;;4.03;;
26774;SDS011;14362;51.902;7.626;2022-07-04T00:14:13;5.20;;;4.50;;
26774;SDS011;14362;51.902;7.626;2022-07-04T00:18:16;5.38;;;4.88;;
26774;SDS011;14362;51.902;7.626;2022-07-04T00:22:18;10.95;;;4.50;;
26774;SDS011;14362;51.902;7.626;2022-07-04T00:26:19;5.82;;;5.15;;
26774;SDS011;14362;51.902;7.626;2022-07-04T00:30:21;5.88;;;5.30;;
26774;SDS011;14362;51.902;7.626;2022-07-04T00:34:23;7.53;;;5.13;;
26774;SDS011;14362;51.902;7.626;2022-07-04T00:38:25;6.40;;;4.85;;
26774;SDS011;14362;51.902;7.626;2022-07-04T00:42:26;5.53;;;4.47;;
26774;SDS011;14362;51.902;7.626;2022-07-04T00:46:28;5.20;;;4.35;;
26774;SDS011;14362;51.902;7.626;2022-07-04T00:50:31;4.47;;;3.90;;
26774;SDS011;14362;51.902;7.626;2022-07-04T00:54:32;6.05;;;4.40;;
26774;SDS011;14362;51.902;7.626;2022-07-04T00:58:34;4.32;;;3.92;;
26774;SDS011;14362;51.902;7.626;2022-07-04T01:02:36;5.00;;;4.28;;
26774;SDS011;14362;51.902;7.626;2022-07-04T01:06:39;4.65;;;4.10;;
26774;SDS011;14362;51.902;7.626;2022-07-04T01:10:41;4.53;;;4.00;;
26774;SDS011;14362;51.902;7.626;2022-07-04T01:14:42;5.30;;;4.10;;
26774;SDS011;14362;51.902;7.626;2022-07-04T01:18:44;4.28;;;3.88;;
26774;SDS011;14362;51.902;7.626;2022-07-04T01:22:46;4.70;;;4.20;;
26774;SDS011;14362;51.902;7.626;2022-07-04T01:26:48;5.35;;;4.18;;
26774;SDS011;14362;51.902;7.626;2022-07-04T01:30:49;11.63;;;4.57;;
26774;SDS011;14362;51.902;7.626;2022-07-04T01:34:51;6.10;;;5.07;;
26774;SDS011;14362;51.902;7.626;2022-07-04T01:38:54;5.65;;;4.85;;
26774;SDS011;14362;51.902;7.626;2022-07-04T01:42:56;5.95;;;4.72;;
26774;SDS011;14362;51.902;7.626;2022-07-04T01:46:59;5.60;;;5.10;;
26774;SDS011;14362;51.902;7.626;2022-07-04T01:51:01;6.43;;;5.82;;
26774;SDS011;14362;51.902;7.626;2022-07-04T01:55:05;5.90;;;5.20;;
26774;SDS011;14362;51.902;7.626;2022-07-04T01:59:07;6.60;;;5.18;;
26774;SDS011;14362;51.902;7.626;2022-07-04T02:03:09;5.88;;;5.38;;
26774;SDS011;14362;51.902;7.626;2022-07-04T02:07:11;5.38;;;4.90;;
26774;SDS011;14362;51.902;7.626;2022-07-04T02:11:13;5.40;;;4.95;;
26774;SDS011;14362;51.902;7.626;2022-07-04T02:15:15;6.75;;;5.25;;
26774;SDS011;14362;51.902;7.626;2022-07-04T02:19:16;8.85;;;5.75;;
26774;SDS011;14362;51.902;7.626;2022-07-04T02:23:18;5.20;;;4.70;;
26774;SDS011;14362;51.902;7.626;2022-07-04T02:27:21;6.20;;;5.57;;
26774;SDS011;14362;51.902;7.626;2022-07-04T02:31:22;6.60;;;5.90;;
26774;SDS011;14362;51.902;7.626;2022-07-04T02:35:24;6.68;;;5.60;;
26774;SDS011;14362;51.902;7.626;2022-07-04T02:39:25;7.22;;;5.95;;
26774;SDS011;14362;51.902;7.626;2022-07-04T02:43:28;6.97;;;6.38;;
26774;SDS011;14362;51.902;7.626;2022-07-04T02:47:29;8.43;;;6.80;;
26774;SDS011;14362;51.902;7.626;2022-07-04T02:51:31;6.95;;;6.30;;
26774;SDS011;14362;51.902;7.626;2022-07-04T02:55:32;6.68;;;6.18;;
26774;SDS011;14362;51.902;7.626;2022-07-04T02:59:35;7.60;;;6.80;;
26774;SDS011;14362;51.902;7.626;2022-07-04T03:03:37;6.95;;;6.22;;
26774;SDS011;14362;51.902;7.626;2022-07-04T03:07:38;6.75;;;6.15;;
26774;SDS011;14362;51.902;7.626;2022-07-04T03:11:40;7.05;;;6.22;;
26774;SDS011;14362;51.902;7.626;2022-07-04T03:15:43;7.00;;;6.30;;
26774;SDS011;14362;51.902;7.626;2022-07-04T03:19:44;8.30;;;6.03;;
26774;SDS011;14362;51.902;7.626;2022-07-04T03:23:46;8.07;;;6.20;;
26774;SDS011;14362;51.902;7.626;2022-07-04T03:27:57;8.93;;;6.22;;
26774;SDS011;14362;51.902;7.626;2022-07-04T03:32:00;6.78;;;5.95;;
26774;SDS011;14362;51.902;7.626;2022-07-04T03:36:01;7.10;;;6.38;;
26774;SDS011;14362;51.902;7.626;2022-07-04T03:40:03;7.50;;;6.05;;
26774;SDS011;14362;51.902;7.626;2022-07-04T03:44:06;7.53;;;6.25;;
26774;SDS011;14362;51.902;7.626;2022-07-04T03:48:08;7.43;;;6.72;;
26774;SDS011;14362;51.902;7.626;2022-07-04T03:52:10;7.05;;;6.40;;
26774;SDS011;14362;51.902;7.626;2022-07-04T03:56:12;6.85;;;6.13;;
26774;SDS011;14362;51.902;7.626;2022-07-04T04:00:13;6.75;;;6.13;;
26774;SDS011;14362;51.902;7.626;2022-07-04T04:04:17;6.65;;;6.00;;
26774;SDS011;14362;51.902;7.626;2022-07-04T04:08:32;7.85;;;6.55;;
26774;SDS011;14362;51.902;7.626;2022-07-04T04:12:34;6.72;;;6.10;;
26774;SDS011;14362;51.902;7.626;2022-07-04T04:16:35;8.65;;;6.20;;
26774;SDS011;14362;51.902;7.626;2022-07-04T04:20:38;8.68;;;6.13;;
26774;SDS011;14362;51.902;7.626;2022-07-04T04:24:40;6.82;;;5.82;;
26774;SDS011;14362;51.902;7.626;2022-07-04T04:28:41;7.05;;;6.05;;
26774;SDS011;14362;51.902;7.626;2022-07-04T04:32:43;9.10;;;6.57;;
26774;SDS011;14362;51.902;7.626;2022-07-04T04:36:45;7.43;;;6.10;;
26774;SDS011;14362;51.902;7.626;2022-07-04T04:40:47;10.20;;;6.35;;
26774;SDS011;14362;51.902;7.626;2022-07-04T04:44:48;7.10;;;6.40;;
26774;SDS011;14362;51.902;7.626;2022-07-04T04:48:50;7.85;;;6.25;;
26774;SDS011;14362;51.902;7.626;2022-07-04T04:52:52;8.13;;;6.30;;
26774;SDS011;14362;51.902;7.626;2022-07-04T04:56:54;6.70;;;6.10;;
26774;SDS011;14362;51.902;7.626;2022-07-04T05:00:55;6.35;;;5.65;;
26774;SDS011;14362;51.902;7.626;2022-07-04T05:04:57;6.70;;;5.95;;
26774;SDS011;14362;51.902;7.626;2022-07-04T05:09:00;7.80;;;6.47;;
26774;SDS011;14362;51.902;7.626;2022-07-04T05:13:01;10.57;;;6.22;;
26774;SDS011;14362;51.902;7.626;2022-07-04T05:17:04;8.40;;;5.68;;
26774;SDS011;14362;51.902;7.626;2022-07-04T05:21:05;6.15;;;5.55;;
26774;SDS011;14362;51.902;7.626;2022-07-04T05:25:08;9.30;;;6.03;;
26774;SDS011;14362;51.902;7.626;2022-07-04T05:29:10;6.82;;;6.15;;
26774;SDS011;14362;51.902;7.626;2022-07-04T05:33:12;5.93;;;5.40;;
26774;SDS011;14362;51.902;7.626;2022-07-04T05:37:13;8.82;;;5.40;;
26774;SDS011;14362;51.902;7.626;2022-07-04T05:41:16;5.72;;;4.68;;
26774;SDS011;14362;51.902;7.626;2022-07-04T05:45:18;8.18;;;4.43;;
26774;SDS011;14362;51.902;7.626;2022-07-04T05:49:19;8.20;;;4.82;;
26774;SDS011;14362;51.902;7.626;2022-07-04T05:53:20;7.55;;;5.05;;
26774;SDS011;14362;51.902;7.626;2022-07-04T05:57:23;9.60;;;4.32;;
26774;SDS011;14362;51.902;7.626;2022-07-04T06:01:25;5.60;;;4.07;;
26774;SDS011;14362;51.902;7.626;2022-07-04T06:05:26;6.07;;;3.83;;
26774;SDS011;14362;51.902;7.626;2022-07-04T06:09:28;5.32;;;3.55;;
26774;SDS011;14362;51.902;7.626;2022-07-04T06:13:30;8.57;;;3.80;;
26774;SDS011;14362;51.902;7.626;2022-07-04T06:17:32;5.15;;;3.80;;
26774;SDS011;14362;51.902;7.626;2022-07-04T06:21:33;5.90;;;3.47;;
26774;SDS011;14362;51.902;7.626;2022-07-04T06:25:35;4.93;;;3.38;;
26774;SDS011;14362;51.902;7.626;2022-07-04T06:29:38;3.95;;;3.53;;
26774;SDS011;14362;51.902;7.626;2022-07-04T06:33:40;3.90;;;3.53;;
26774;SDS011;14362;51.902;7.626;2022-07-04T06:37:55;8.95;;;3.78;;
26774;SDS011;14362;51.902;7.626;2022-07-04T06:41:57;5.68;;;3.03;;
26774;SDS011;14362;51.902;7.626;2022-07-04T06:46:00;4.88;;;3.28;;
26774;SDS011;14362;51.902;7.626;2022-07-04T06:50:01;4.55;;;2.60;;
26774;SDS011;14362;51.902;7.626;2022-07-04T06:54:03;5.32;;;3.45;;
26774;SDS011;14362;51.902;7.626;2022-07-04T06:58:05;5.50;;;2.63;;
26774;SDS011;14362;51.902;7.626;2022-07-04T07:02:08;6.28;;;3.15;;
26774;SDS011;14362;51.902;7.626;2022-07-04T07:06:10;5.50;;;2.00;;
26774;SDS011;14362;51.902;7.626;2022-07-04T07:10:11;6.40;;;2.15;;
26774;SDS011;14362;51.902;7.626;2022-07-04T07:14:13;3.88;;;2.40;;
26774;SDS011;14362;51.902;7.626;2022-07-04T07:18:16;9.68;;;3.53;;
26774;SDS011;14362;51.902;7.626;2022-07-04T07:22:17;4.95;;;2.40;;
26774;SDS011;14362;51.902;7.626;2022-07-04T07:26:19;3.72;;;2.60;;
26774;SDS011;14362;51.902;7.626;2022-07-04T07:30:21;4.55;;;2.78;;
26774;SDS011;14362;51.902;7.626;2022-07-04T07:34:23;5.53;;;2.60;;
26774;SDS011;14362;51.902;7.626;2022-07-04T07:38:25;4.85;;;2.30;;
26774;SDS011;14362;51.902;7.626;2022-07-04T07:42:26;4.43;;;2.10;;
26774;SDS011;14362;51.902;7.626;2022-07-04T07:46:28;4.03;;;2.20;;
26774;SDS011;14362;51.902;7.626;2022-07-04T07:50:31;3.35;;;2.05;;
26774;SDS011;14362;51.902;7.626;2022-07-04T07:54:33;6.82;;;1.73;;
26774;SDS011;14362;51.902;7.626;2022-07-04T07:58:35;5.13;;;1.77;;
26774;SDS011;14362;51.902;7.626;2022-07-04T08:02:36;3.53;;;1.38;;
26774;SDS011;14362;51.902;7.626;2022-07-04T08:06:53;3.67;;;1.45;;
26774;SDS011;14362;51.902;7.626;2022-07-04T08:10:54;3.13;;;1.25;;
26774;SDS011;14362;51.902;7.626;2022-07-04T08:14:56;4.00;;;1.70;;
26774;SDS011;14362;51.902;7.626;2022-07-04T08:18:57;3.13;;;1.35;;
26774;SDS011;14362;51.902;7.626;2022-07-04T08:23:00;2.95;;;1.88;;
26774;SDS011;14362;51.902;7.626;2022-07-04T08:27:02;2.83;;;1.50;;
26774;SDS011;14362;51.902;7.626;2022-07-04T08:31:03;2.30;;;1.77;;
26774;SDS011;14362;51.902;7.626;2022-07-04T08:35:05;3.83;;;1.48;;
26774;SDS011;14362;51.902;7.626;2022-07-04T08:39:08;5.25;;;1.50;;
26774;SDS011;14362;51.902;7.626;2022-07-04T08:43:10;3.67;;;1.35;;
26774;SDS011;14362;51.902;7.626;2022-07-04T08:47:15;3.28;;;1.30;;
26774;SDS011;14362;51.902;7.626;2022-07-04T08:51:21;2.40;;;0.80;;
26774;SDS011;14362;51.902;7.626;2022-07-04T08:55:31;4.25;;;1.48;;
26774;SDS011;14362;51.902;7.626;2022-07-04T08:59:51;1.83;;;0.90;;
26774;SDS011;14362;51.902;7.626;2022-07-04T09:03:55;3.05;;;1.17;;
26774;SDS011;14362;51.902;7.626;2022-07-04T09:07:57;3.60;;;0.90;;
26774;SDS011;14362;51.902;7.626;2022-07-04T09:12:00;1.15;;;0.75;;
26774;SDS011;14362;51.902;7.626;2022-07-04T09:16:02;2.13;;;0.85;;
26774;SDS011;14362;51.902;7.626;2022-07-04T09:20:13;1.52;;;0.88;;
26774;SDS011;14362;51.902;7.626;2022-07-04T09:24:16;1.55;;;0.90;;
26774;SDS011;14362;51.902;7.626;2022-07-04T09:28:50;2.30;;;0.90;;
26774;SDS011;14362;51.902;7.626;2022-07-04T09:32:54;1.92;;;0.95;;
26774;SDS011;14362;51.902;7.626;2022-07-04T09:37:00;2.42;;;0.80;;
26774;SDS011;14362;51.902;7.626;2022-07-04T09:41:01;1.65;;;0.90;;
26774;SDS011;14362;51.902;7.626;2022-07-04T09:45:23;1.50;;;0.93;;
26774;SDS011;14362;51.902;7.626;2022-07-04T09:49:24;7.72;;;1.45;;
26774;SDS011;14362;51.902;7.626;2022-07-04T09:53:26;2.72;;;1.02;;
26774;SDS011;14362;51.902;7.626;2022-07-04T09:57:28;1.95;;;1.00;;
26774;SDS011;14362;51.902;7.626;2022-07-04T10:01:32;1.50;;;1.00;;
26774;SDS011;14362;51.902;7.626;2022-07-04T10:05:33;2.08;;;0.98;;
26774;SDS011;14362;51.902;7.626;2022-07-04T10:09:34;3.80;;;0.95;;
26774;SDS011;14362;51.902;7.626;2022-07-04T10:13:36;0.85;;;0.55;;
26774;SDS011;14362;51.902;7.626;2022-07-04T10:17:40;2.28;;;0.90;;
26774;SDS011;14362;51.902;7.626;2022-07-04T10:21:41;3.15;;;0.80;;
26774;SDS011;14362;51.902;7.626;2022-07-04T10:25:45;1.95;;;0.75;;
26774;SDS011;14362;51.902;7.626;2022-07-04T10:29:48;2.90;;;0.90;;
26774;SDS011;14362;51.902;7.626;2022-07-04T10:33:51;1.27;;;1.00;;
26774;SDS011;14362;51.902;7.626;2022-07-04T10:37:57;2.97;;;0.90;;
26774;SDS011;14362;51.902;7.626;2022-07-04T10:42:03;0.75;;;0.68;;
26774;SDS011;14362;51.902;7.626;2022-07-04T10:46:29;3.05;;;0.73;;
26774;SDS011;14362;51.902;7.626;2022-07-04T10:50:32;2.45;;;0.70;;
26774;SDS011;14362;51.902;7.626;2022-07-04T10:54:34;1.95;;;0.90;;
26774;SDS011;14362;51.902;7.626;2022-07-04T10:58:38;1.90;;;0.77;;
26774;SDS011;14362;51.902;7.626;2022-07-04T11:02:40;2.22;;;0.80;;
26774;SDS011;14362;51.902;7.626;2022-07-04T11:06:52;1.65;;;0.80;;
26774;SDS011;14362;51.902;7.626;2022-07-04T11:10:54;3.17;;;0.73;;
26774;SDS011;14362;51.902;7.626;2022-07-04T11:15:05;2.20;;;0.68;;
26774;SDS011;14362;51.902;7.626;2022-07-04T11:19:07;2.45;;;1.05;;
26774;SDS011;14362;51.902;7.626;2022-07-04T11:23:11;1.35;;;0.73;;
26774;SDS011;14362;51.902;7.626;2022-07-04T11:27:14;0.80;;;0.60;;
26774;SDS011;14362;51.902;7.626;2022-07-04T11:31:16;1.95;;;0.73;;
26774;SDS011;14362;51.902;7.626;2022-07-04T11:35:20;2.13;;;0.90;;
26774;SDS011;14362;51.902;7.626;2022-07-04T11:39:23;3.20;;;0.90;;
26774;SDS011;14362;51.902;7.626;2022-07-04T11:43:24;1.42;;;0.80;;
26774;SDS011;14362;51.902;7.626;2022-07-04T11:47:43;1.95;;;0.85;;
26774;SDS011;14362;51.902;7.626;2022-07-04T11:51:46;2.50;;;0.73;;
26774;SDS011;14362;51.902;7.626;2022-07-04T11:55:53;1.73;;;0.85;;
26774;SDS011;14362;51.902;7.626;2022-07-04T11:59:57;2.72;;;0.80;;
26774;SDS011;14362;51.902;7.626;2022-07-04T12:04:10;2.78;;;0.80;;
26774;SDS011;14362;51.902;7.626;2022-07-04T12:08:12;2.65;;;1.00;;
26774;SDS011;14362;51.902;7.626;2022-07-04T12:12:15;3.60;;;0.90;;
26774;SDS011;14362;51.902;7.626;2022-07-04T12:16:17;2.38;;;0.77;;
26774;SDS011;14362;51.902;7.626;2022-07-04T12:20:19;3.92;;;1.13;;
26774;SDS011;14362;51.902;7.626;2022-07-04T12:24:20;2.47;;;0.90;;
26774;SDS011;14362;51.902;7.626;2022-07-04T12:28:24;1.17;;;0.70;;
26774;SDS011;14362;51.902;7.626;2022-07-04T12:36:49;1.17;;;0.85;;
26774;SDS011;14362;51.902;7.626;2022-07-04T12:40:52;2.33;;;0.80;;
26774;SDS011;14362;51.902;7.626;2022-07-04T12:45:04;2.38;;;1.00;;
26774;SDS011;14362;51.902;7.626;2022-07-04T12:49:06;1.10;;;0.75;;
26774;SDS011;14362;51.902;7.626;2022-07-04T12:53:07;1.90;;;1.00;;
26774;SDS011;14362;51.902;7.626;2022-07-04T12:57:10;3.30;;;0.90;;
26774;SDS011;14362;51.902;7.626;2022-07-04T13:01:14;2.80;;;1.05;;
26774;SDS011;14362;51.902;7.626;2022-07-04T13:05:15;2.45;;;1.00;;
26774;SDS011;14362;51.902;7.626;2022-07-04T13:09:17;2.15;;;0.90;;
26774;SDS011;14362;51.902;7.626;2022-07-04T13:13:18;4.70;;;1.08;;
26774;SDS011;14362;51.902;7.626;2022-07-04T13:17:21;5.00;;;0.93;;
26774;SDS011;14362;51.902;7.626;2022-07-04T13:21:23;1.63;;;1.08;;
26774;SDS011;14362;51.902;7.626;2022-07-04T13:25:25;2.22;;;0.90;;
26774;SDS011;14362;51.902;7.626;2022-07-04T13:29:26;2.42;;;1.00;;
26774;SDS011;14362;51.902;7.626;2022-07-04T13:33:29;4.00;;;1.10;;
26774;SDS011;14362;51.902;7.626;2022-07-04T13:37:31;1.67;;;0.97;;
26774;SDS011;14362;51.902;7.626;2022-07-04T13:41:33;2.45;;;1.00;;
26774;SDS011;14362;51.902;7.626;2022-07-04T13:45:35;2.28;;;1.17;;
26774;SDS011;14362;51.902;7.626;2022-07-04T13:49:40;2.88;;;1.02;;
26774;SDS011;14362;51.902;7.626;2022-07-04T13:53:42;2.38;;;0.80;;
26774;SDS011;14362;51.902;7.626;2022-07-04T13:57:43;2.25;;;0.93;;
26774;SDS011;14362;51.902;7.626;2022-07-04T14:01:45;1.73;;;1.00;;
26774;SDS011;14362;51.902;7.626;2022-07-04T14:05:48;1.50;;;0.82;;
26774;SDS011;14362;51.902;7.626;2022-07-04T14:09:50;2.72;;;0.80;;
26774;SDS011;14362;51.902;7.626;2022-07-04T14:13:51;2.08;;;1.00;;
26774;SDS011;14362;51.902;7.626;2022-07-04T14:17:53;2.58;;;1.17;;
26774;SDS011;14362;51.902;7.626;2022-07-04T14:21:56;4.40;;;1.27;;
26774;SDS011;14362;51.902;7.626;2022-07-04T14:25:57;5.05;;;1.92;;
26774;SDS011;14362;51.902;7.626;2022-07-04T14:29:58;2.22;;;1.10;;
26774;SDS011;14362;51.902;7.626;2022-07-04T14:34:00;4.55;;;1.38;;
26774;SDS011;14362;51.902;7.626;2022-07-04T14:38:03;1.90;;;1.10;;
26774;SDS011;14362;51.902;7.626;2022-07-04T14:42:05;2.75;;;1.13;;
26774;SDS011;14362;51.902;7.626;2022-07-04T14:46:07;3.60;;;1.00;;
26774;SDS011;14362;51.902;7.626;2022-07-04T14:50:09;5.70;;;1.30;;
26774;SDS011;14362;51.902;7.626;2022-07-04T14:54:12;2.33;;;1.20;;
26774;SDS011;14362;51.902;7.626;2022-07-04T14:58:14;2.38;;;0.90;;
26774;SDS011;14362;51.902;7.626;2022-07-04T15:02:15;5.03;;;1.10;;
26774;SDS011;14362;51.902;7.626;2022-07-04T15:06:17;2.17;;;1.05;;
26774;SDS011;14362;51.902;7.626;2022-07-04T15:10:20;2.58;;;1.30;;
26774;SDS011;14362;51.902;7.626;2022-07-04T15:14:21;2.25;;;1.30;;
26774;SDS011;14362;51.902;7.626;2022-07-04T15:18:23;3.65;;;1.30;;
26774;SDS011;14362;51.902;7.626;2022-07-04T15:22:25;2.65;;;1.70;;
26774;SDS011;14362;51.902;7.626;2022-07-04T15:26:46;2.33;;;1.10;;
26774;SDS011;14362;51.902;7.626;2022-07-04T15:30:49;3.80;;;1.10;;
26774;SDS011;14362;51.902;7.626;2022-07-04T15:34:50;2.55;;;1.20;;
26774;SDS011;14362;51.902;7.626;2022-07-04T15:38:52;2.83;;;1.13;;
26774;SDS011;14362;51.902;7.626;2022-07-04T15:42:55;1.35;;;1.10;;
26774;SDS011;14362;51.902;7.626;2022-07-04T15:46:56;2.63;;;1.00;;
26774;SDS011;14362;51.902;7.626;2022-07-04T15:51:10;6.47;;;2.17;;
26774;SDS011;14362;51.902;7.626;2022-07-04T15:55:11;1.58;;;1.30;;
26774;SDS011;14362;51.902;7.626;2022-07-04T15:59:14;3.85;;;1.50;;
26774;SDS011;14362;51.902;7.626;2022-07-04T16:03:16;2.15;;;1.10;;
26774;SDS011;14362;51.902;7.626;2022-07-04T16:07:17;2.60;;;1.38;;
26774;SDS011;14362;51.902;7.626;2022-07-04T16:11:19;3.83;;;1.10;;
26774;SDS011;14362;51.902;7.626;2022-07-04T16:15:23;1.92;;;1.23;;
26774;SDS011;14362;51.902;7.626;2022-07-04T16:19:24;4.50;;;1.20;;
26774;SDS011;14362;51.902;7.626;2022-07-04T16:23:26;3.10;;;1.30;;
26774;SDS011;14362;51.902;7.626;2022-07-04T16:27:27;4.05;;;1.70;;
26774;SDS011;14362;51.902;7.626;2022-07-04T16:31:30;2.53;;;1.38;;
26774;SDS011;14362;51.902;7.626;2022-07-04T16:35:32;3.33;;;1.45;;
26774;SDS011;14362;51.902;7.626;2022-07-04T16:39:33;3.33;;;1.30;;
26774;SDS011;14362;51.902;7.626;2022-07-04T16:43:35;3.97;;;1.40;;
26774;SDS011;14362;51.902;7.626;2022-07-04T16:47:38;3.38;;;1.40;;
26774;SDS011;14362;51.902;7.626;2022-07-04T16:51:40;4.22;;;1.50;;
26774;SDS011;14362;51.902;7.626;2022-07-04T16:55:41;3.42;;;1.60;;
26774;SDS011;14362;51.902;7.626;2022-07-04T16:59:43;3.25;;;1.58;;
26774;SDS011;14362;51.902;7.626;2022-07-04T17:03:46;3.80;;;1.70;;
26774;SDS011;14362;51.902;7.626;2022-07-04T17:07:48;3.55;;;1.52;;
26774;SDS011;14362;51.902;7.626;2022-07-04T17:11:49;6.25;;;1.48;;
26774;SDS011;14362;51.902;7.626;2022-07-04T17:15:51;3.20;;;1.75;;
26774;SDS011;14362;51.902;7.626;2022-07-04T17:19:54;3.92;;;1.88;;
26774;SDS011;14362;51.902;7.626;2022-07-04T17:23:55;2.22;;;1.48;;
26774;SDS011;14362;51.902;7.626;2022-07-04T17:27:57;5.32;;;1.80;;
26774;SDS011;14362;51.902;7.626;2022-07-04T17:31:59;2.30;;;1.92;;
26774;SDS011;14362;51.902;7.626;2022-07-04T17:36:01;3.83;;;1.85;;
26774;SDS011;14362;51.902;7.626;2022-07-04T17:40:03;3.25;;;1.50;;
26774;SDS011;14362;51.902;7.626;2022-07-04T17:44:06;2.47;;;1.50;;
26774;SDS011;14362;51.902;7.626;2022-07-04T17:48:07;1.80;;;1.45;;
26774;SDS011;14362;51.902;7.626;2022-07-04T17:52:10;2.30;;;1.65;;
26774;SDS011;14362;51.902;7.626;2022-07-04T17:56:11;3.53;;;1.38;;
26774;SDS011;14362;51.902;7.626;2022-07-04T18:00:13;2.00;;;1.50;;
26774;SDS011;14362;51.902;7.626;2022-07-04T18:04:15;2.00;;;1.40;;
26774;SDS011;14362;51.902;7.626;2022-07-04T18:08:18;2.20;;;1.50;;
26774;SDS011;14362;51.902;7.626;2022-07-04T18:12:19;2.35;;;1.25;;
26774;SDS011;14362;51.902;7.626;2022-07-04T18:16:21;2.47;;;1.40;;
26774;SDS011;14362;51.902;7.626;2022-07-04T18:20:23;2.15;;;1.55;;
26774;SDS011;14362;51.902;7.626;2022-07-04T18:24:25;3.45;;;1.30;;
26774;SDS011;14362;51.902;7.626;2022-07-04T18:28:27;1.80;;;1.30;;
26774;SDS011;14362;51.902;7.626;2022-07-04T18:32:28;1.95;;;1.20;;
26774;SDS011;14362;51.902;7.626;2022-07-04T18:36:30;2.85;;;1.13;;
26774;SDS011;14362;51.902;7.626;2022-07-04T18:40:33;1.55;;;1.23;;
26774;SDS011;14362;51.902;7.626;2022-07-04T18:44:57;2.20;;;1.20;;
26774;SDS011;14362;51.902;7.626;2022-07-04T18:48:59;1.80;;;0.93;;
26774;SDS011;14362;51.902;7.626;2022-07-04T18:53:00;1.58;;;1.10;;
26774;SDS011;14362;51.902;7.626;2022-07-04T18:57:03;1.80;;;1.38;;
26774;SDS011;14362;51.902;7.626;2022-07-04T19:01:08;3.05;;;1.30;;
26774;SDS011;14362;51.902;7.626;2022-07-04T19:05:10;3.03;;;1.40;;
26774;SDS011;14362;51.902;7.626;2022-07-04T19:09:12;3.80;;;1.38;;
26774;SDS011;14362;51.902;7.626;2022-07-04T19:13:15;3.00;;;1.40;;
26774;SDS011;14362;51.902;7.626;2022-07-04T19:17:19;3.22;;;1.30;;
26774;SDS011;14362;51.902;7.626;2022-07-04T19:21:20;3.08;;;1.35;;
26774;SDS011;14362;51.902;7.626;2022-07-04T19:25:22;3.60;;;1.50;;
26774;SDS011;14362;51.902;7.626;2022-07-04T19:29:26;2.88;;;1.30;;
26774;SDS011;14362;51.902;7.626;2022-07-04T19:33:27;2.13;;;1.02;;
26774;SDS011;14362;51.902;7.626;2022-07-04T19:37:29;1.10;;;1.00;;
26774;SDS011;14362;51.902;7.626;2022-07-04T19:41:30;1.92;;;1.30;;
26774;SDS011;14362;51.902;7.626;2022-07-04T19:45:33;2.60;;;1.15;;
26774;SDS011;14362;51.902;7.626;2022-07-04T19:49:35;2.53;;;1.35;;
26774;SDS011;14362;51.902;7.626;2022-07-04T19:53:36;1.02;;;0.85;;
26774;SDS011;14362;51.902;7.626;2022-07-04T19:57:39;1.95;;;1.30;;
26774;SDS011;14362;51.902;7.626;2022-07-04T20:01:46;1.77;;;1.15;;
26774;SDS011;14362;51.902;7.626;2022-07-04T20:05:47;2.20;;;1.40;;
26774;SDS011;14362;51.902;7.626;2022-07-04T20:09:49;2.15;;;1.17;;
26774;SDS011;14362;51.902;7.626;2022-07-04T20:13:51;3.17;;;1.15;;
26774;SDS011;14362;51.902;7.626;2022-07-04T20:17:54;3.25;;;1.02;;
26774;SDS011;14362;51.902;7.626;2022-07-04T20:21:55;2.60;;;1.40;;
26774;SDS011;14362;51.902;7.626;2022-07-04T20:25:57;1.60;;;1.10;;
26774;SDS011;14362;51.902;7.626;2022-07-04T20:29:59;1.48;;;1.02;;
26774;SDS011;14362;51.902;7.626;2022-07-04T20:34:02;1.40;;;1.02;;
26774;SDS011;14362;51.902;7.626;2022-07-04T20:38:04;2.97;;;1.30;;
26774;SDS011;14362;51.902;7.626;2022-07-04T20:42:05;3.88;;;1.23;;
26774;SDS011;14362;51.902;7.626;2022-07-04T20:46:08;3.25;;;1.25;;
26774;SDS011;14362;51.902;7.626;2022-07-04T20:50:11;2.25;;;0.95;;
26774;SDS011;14362;51.902;7.626;2022-07-04T20:54:12;2.90;;;1.10;;
26774;SDS011;14362;51.902;7.626;2022-07-04T20:58:14;2.42;;;1.15;;
26774;SDS011;14362;51.902;7.626;2022-07-04T21:02:16;5.55;;;1.42;;
26774;SDS011;14362;51.902;7.626;2022-07-04T21:06:19;2.25;;;1.05;;
26774;SDS011;14362;51.902;7.626;2022-07-04T21:10:20;2.50;;;1.40;;
26774;SDS011;14362;51.902;7.626;2022-07-04T21:14:23;1.73;;;1.15;;
26774;SDS011;14362;51.902;7.626;2022-07-04T21:18:25;1.45;;;1.20;;
26774;SDS011;14362;51.902;7.626;2022-07-04T21:22:27;4.10;;;1.88;;
26774;SDS011;14362;51.902;7.626;2022-07-04T21:26:29;2.20;;;1.35;;
26774;SDS011;14362;51.902;7.626;2022-07-04T21:30:30;1.95;;;1.33;;
26774;SDS011;14362;51.902;7.626;2022-07-04T21:34:32;3.70;;;1.38;;
26774;SDS011;14362;51.902;7.626;2022-07-04T21:38:35;4.68;;;1.48;;
26774;SDS011;14362;51.902;7.626;2022-07-04T21:42:38;2.88;;;1.33;;
26774;SDS011;14362;51.902;7.626;2022-07-04T21:46:40;4.00;;;1.10;;
26774;SDS011;14362;51.902;7.626;2022-07-04T21:50:41;2.75;;;1.30;;
26774;SDS011;14362;51.902;7.626;2022-07-04T21:54:44;3.35;;;1.50;;
26774;SDS011;14362;51.902;7.626;2022-07-04T21:58:46;3.53;;;1.40;;
26774;SDS011;14362;51.902;7.626;2022-07-04T22:02:47;4.47;;;1.85;;
26774;SDS011;14362;51.902;7.626;2022-07-04T22:06:49;5.70;;;1.58;;
26774;SDS011;14362;51.902;7.626;2022-07-04T22:10:52;2.50;;;1.30;;
26774;SDS011;14362;51.902;7.626;2022-07-04T22:14:53;1.85;;;1.52;;
26774;SDS011;14362;51.902;7.626;2022-07-04T22:18:55;2.00;;;1.50;;
26774;SDS011;14362;51.902;7.626;2022-07-04T22:22:56;1.85;;;1.50;;
26774;SDS011;14362;51.902;7.626;2022-07-04T22:26:59;1.77;;;1.40;;
26774;SDS011;14362;51.902;7.626;2022-07-04T22:31:00;1.95;;;1.30;;
26774;SDS011;14362;51.902;7.626;2022-07-04T22:35:03;1.70;;;1.40;;
26774;SDS011;14362;51.902;7.626;2022-07-04T22:39:05;3.80;;;1.52;;
26774;SDS011;14362;51.902;7.626;2022-07-04T22:43:07;3.72;;;1.40;;
26774;SDS011;14362;51.902;7.626;2022-07-04T22:47:09;1.95;;;1.40;;
26774;SDS011;14362;51.902;7.626;2022-07-04T22:51:10;2.22;;;1.58;;
26774;SDS011;14362;51.902;7.626;2022-07-04T22:55:13;2.00;;;1.50;;
26774;SDS011;14362;51.902;7.626;2022-07-04T22:59:16;5.93;;;1.60;;
26774;SDS011;14362;51.902;7.626;2022-07-04T23:03:18;2.22;;;1.73;;
26774;SDS011;14362;51.902;7.626;2022-07-04T23:07:20;3.85;;;1.70;;
26774;SDS011;14362;51.902;7.626;2022-07-04T23:11:23;3.97;;;1.70;;
26774;SDS011;14362;51.902;7.626;2022-07-04T23:15:26;1.70;;;1.60;;
26774;SDS011;14362;51.902;7.626;2022-07-04T23:19:27;1.50;;;1.40;;
26774;SDS011;14362;51.902;7.626;2022-07-04T23:23:30;2.17;;;1.70;;
26774;SDS011;14362;51.902;7.626;2022-07-04T23:27:32;3.42;;;1.83;;
26774;SDS011;14362;51.902;7.626;2022-07-04T23:31:35;3.88;;;1.90;;
26774;SDS011;14362;51.902;7.626;2022-07-04T23:35:36;2.30;;;1.80;;
26774;SDS011;14362;51.902;7.626;2022-07-04T23:39:38;4.50;;;2.00;;
26774;SDS011;14362;51.902;7.626;2022-07-04T23:43:40;3.97;;;2.17;;
26774;SDS011;14362;51.902;7.626;2022-07-04T23:47:43;4.97;;;2.22;;
26774;SDS011;14362;51.902;7.626;2022-07-04T23:51:45;4.13;;;2.17;;
26774;SDS011;14362;51.902;7.626;2022-07-04T23:55:46;2.53;;;1.98;;
26774;SDS011;14362;51.902;7.626;2022-07-04T23:59:48;2.10;;;1.90;;
